createdAt,value
2018-02-01T00:00:46.247Z,9.47
2018-02-01T00:03:13.723Z,11.35
2018-02-01T00:05:41.439Z,12.50
2018-02-01T00:08:08.903Z,11.10
2018-02-01T00:10:36.361Z,13.55
2018-02-01T00:13:03.952Z,13.15
2018-02-01T00:15:31.413Z,17.17
2018-02-01T00:17:58.903Z,16.35
2018-02-01T00:20:26.569Z,18.48
2018-02-01T00:22:54.036Z,20.10
2018-02-01T00:25:21.508Z,21.15
2018-02-01T00:27:49.079Z,19.87
2018-02-01T00:30:16.546Z,25.02
2018-02-01T00:32:44.011Z,22.85
2018-02-01T00:35:11.504Z,22.35
2018-02-01T00:37:38.968Z,24.50
2018-02-01T00:40:06.432Z,24.92
2018-02-01T00:42:33.900Z,29.33
2018-02-01T00:45:01.361Z,20.85
2018-02-01T00:47:28.820Z,26.55
2018-02-01T00:49:56.300Z,24.50
2018-02-01T00:52:23.767Z,24.05
2018-02-01T00:54:51.257Z,27.80
2018-02-01T00:57:18.815Z,24.58
2018-02-01T00:59:46.279Z,27.30
2018-02-01T01:02:17.077Z,28.83
2018-02-01T01:04:45.320Z,27.37
2018-02-01T01:07:13.003Z,25.52
2018-02-01T01:09:40.560Z,31.05
2018-02-01T01:12:08.020Z,24.55
2018-02-01T01:14:35.488Z,26.62
2018-02-01T01:17:02.976Z,26.08
2018-02-01T01:19:30.439Z,25.37
2018-02-01T01:21:57.896Z,25.35
2018-02-01T01:24:25.376Z,20.80
2018-02-01T01:26:52.843Z,23.40
2018-02-01T01:29:20.306Z,23.02
2018-02-01T01:31:47.772Z,28.58
2018-02-01T01:34:15.632Z,21.20
2018-02-01T01:36:43.145Z,24.23
2018-02-01T01:39:10.608Z,23.90
2018-02-01T01:41:38.088Z,21.67
2018-02-01T01:44:05.551Z,20.00
2018-02-01T01:46:33.021Z,22.40
2018-02-01T01:49:00.693Z,24.23
2018-02-01T01:51:28.180Z,22.83
2018-02-01T01:53:55.653Z,25.00
2018-02-01T01:56:23.132Z,23.08
2018-02-01T01:58:51.373Z,21.52
2018-02-01T02:01:18.828Z,21.60
2018-02-01T02:03:46.304Z,28.55
2018-02-01T02:06:13.896Z,24.60
2018-02-01T02:08:41.368Z,22.87
2018-02-01T02:11:08.836Z,18.60
2018-02-01T02:13:36.300Z,29.27
2018-02-01T02:16:03.781Z,22.85
2018-02-01T02:18:32.781Z,18.65
2018-02-01T02:21:00.244Z,24.47
2018-02-01T02:23:27.770Z,23.52
2018-02-01T02:25:55.992Z,24.35
2018-02-01T02:28:23.459Z,21.48
2018-02-01T02:30:50.927Z,20.30
2018-02-01T02:33:18.420Z,21.35
2018-02-01T02:35:45.988Z,22.52
2018-02-01T02:38:13.456Z,28.35
2018-02-01T02:40:40.930Z,26.15
2018-02-01T02:43:08.421Z,24.65
2018-02-01T02:45:36.648Z,25.30
2018-02-01T02:48:04.105Z,26.52
2018-02-01T02:50:31.638Z,22.97
2018-02-01T02:52:59.863Z,23.50
2018-02-01T02:55:27.344Z,24.05
2018-02-01T02:57:54.840Z,24.37
2018-02-01T03:00:22.459Z,24.42
2018-02-01T03:02:50.712Z,22.15
2018-02-01T03:05:18.196Z,26.00
2018-02-01T03:07:45.656Z,26.45
2018-02-01T03:10:13.196Z,25.70
2018-02-01T03:12:40.684Z,25.47
2018-02-01T03:15:08.160Z,28.48
2018-02-01T03:17:35.632Z,25.67
2018-02-01T03:20:03.119Z,27.35
2018-02-01T03:22:30.577Z,29.17
2018-02-01T03:24:58.035Z,25.35
2018-02-01T03:27:25.616Z,29.75
2018-02-01T03:29:53.101Z,32.05
2018-02-01T03:32:21.372Z,31.42
2018-02-01T03:34:48.837Z,28.30
2018-02-01T03:37:16.425Z,25.95
2018-02-01T03:39:43.903Z,29.27
2018-02-01T03:42:11.460Z,31.58
2018-02-01T03:44:38.926Z,31.00
2018-02-01T03:47:06.380Z,32.30
2018-02-01T03:49:33.864Z,31.50
2018-02-01T03:52:01.432Z,32.93
2018-02-01T03:54:28.912Z,32.15
2018-02-01T03:56:56.376Z,28.23
2018-02-01T03:59:25.369Z,30.58
2018-02-01T04:01:52.839Z,29.40
2018-02-01T04:04:20.421Z,31.55
2018-02-01T04:06:47.888Z,28.62
2018-02-01T04:09:15.356Z,35.33
2018-02-01T04:11:42.928Z,28.77
2018-02-01T04:14:10.396Z,31.08
2018-02-01T04:16:37.887Z,28.75
2018-02-01T04:19:05.396Z,28.73
2018-02-01T04:21:32.935Z,23.23
2018-02-01T04:24:00.380Z,28.35
2018-02-01T04:26:28.180Z,28.15
2018-02-01T04:28:55.653Z,32.78
2018-02-01T04:31:23.891Z,26.90
2018-02-01T04:33:51.352Z,21.20
2018-02-01T04:36:18.836Z,26.70
2018-02-01T04:38:46.332Z,23.08
2018-02-01T04:41:13.895Z,22.55
2018-02-01T04:43:41.480Z,19.12
2018-02-01T04:46:09.036Z,21.65
2018-02-01T04:48:36.508Z,19.85
2018-02-01T04:51:03.967Z,25.33
2018-02-01T04:53:31.432Z,24.27
2018-02-01T04:55:58.916Z,23.55
2018-02-01T04:58:26.500Z,20.17
2018-02-01T05:00:54.060Z,20.17
2018-02-01T05:03:21.516Z,19.27
2018-02-01T05:05:49.000Z,22.30
2018-02-01T05:08:16.568Z,20.02
2018-02-01T05:10:44.032Z,17.90
2018-02-01T05:13:11.521Z,19.95
2018-02-01T05:15:39.004Z,21.25
2018-02-01T05:18:07.240Z,15.38
2018-02-01T05:20:34.700Z,15.50
2018-02-01T05:23:02.180Z,18.77
2018-02-01T05:25:29.680Z,22.50
2018-02-01T05:27:57.243Z,16.27
2018-02-01T05:30:24.825Z,14.10
2018-02-01T05:32:52.280Z,17.05
2018-02-01T05:35:19.735Z,18.15
2018-02-01T05:37:47.211Z,18.00
2018-02-01T05:40:14.696Z,16.12
2018-02-01T05:42:42.151Z,15.00
2018-02-01T05:45:09.647Z,17.80
2018-02-01T05:47:37.124Z,17.92
2018-02-01T05:50:04.676Z,13.88
2018-02-01T05:52:32.247Z,12.32
2018-02-01T05:54:59.715Z,18.40
2018-02-01T05:57:27.177Z,13.38
2018-02-01T05:59:54.663Z,10.85
2018-02-01T06:02:22.120Z,13.65
2018-02-01T06:04:49.800Z,14.93
2018-02-01T06:07:17.256Z,16.85
2018-02-01T06:09:44.727Z,12.75
2018-02-01T06:12:12.216Z,13.27
2018-02-01T06:14:39.680Z,13.93
2018-02-01T06:17:07.140Z,14.48
2018-02-01T06:19:34.604Z,17.70
2018-02-01T06:22:02.089Z,12.63
2018-02-01T06:24:29.664Z,16.77
2018-02-01T06:26:57.236Z,16.55
2018-02-01T06:29:24.700Z,16.80
2018-02-01T06:31:52.156Z,15.23
2018-02-01T06:34:19.631Z,15.35
2018-02-01T06:36:47.116Z,14.05
2018-02-01T06:39:14.580Z,15.77
2018-02-01T06:41:42.060Z,14.15
2018-02-01T06:44:09.528Z,15.07
2018-02-01T06:46:36.987Z,15.98
2018-02-01T06:49:04.476Z,16.77
2018-02-01T06:51:31.945Z,16.90
2018-02-01T06:53:59.403Z,11.00
2018-02-01T06:56:26.878Z,16.40
2018-02-01T06:58:54.432Z,15.38
2018-02-01T07:01:23.747Z,12.05
2018-02-01T07:03:51.288Z,17.17
2018-02-01T07:06:18.752Z,18.45
2018-02-01T07:08:46.231Z,20.67
2018-02-01T07:11:13.688Z,16.17
2018-02-01T07:13:41.148Z,16.52
2018-02-01T07:16:08.676Z,20.02
2018-02-01T07:18:36.132Z,21.65
2018-02-01T07:21:03.704Z,16.90
2018-02-01T07:23:31.168Z,14.25
2018-02-01T07:25:58.628Z,20.73
2018-02-01T07:28:26.100Z,21.42
2018-02-01T07:30:53.688Z,15.73
2018-02-01T07:33:21.256Z,20.95
2018-02-01T07:35:48.712Z,16.12
2018-02-01T07:38:16.200Z,17.42
2018-02-01T07:40:43.775Z,17.85
2018-02-01T07:43:11.244Z,18.58
2018-02-01T07:45:40.220Z,23.27
2018-02-01T07:48:07.679Z,16.23
2018-02-01T07:50:35.188Z,16.92
2018-02-01T07:53:04.160Z,18.00
2018-02-01T07:55:31.626Z,18.60
2018-02-01T07:57:59.137Z,16.20
2018-02-01T08:00:26.595Z,17.35
2018-02-01T08:02:54.064Z,15.05
2018-02-01T08:05:21.537Z,15.13
2018-02-01T08:07:49.001Z,17.30
2018-02-01T08:10:16.684Z,21.83
2018-02-01T08:12:44.154Z,16.08
2018-02-01T08:15:11.613Z,16.98
2018-02-01T08:17:40.005Z,13.25
2018-02-01T08:20:07.472Z,22.92
2018-02-01T08:22:34.933Z,11.63
2018-02-01T08:25:02.396Z,16.50
2018-02-01T08:27:29.856Z,14.40
2018-02-01T08:29:57.328Z,20.97
2018-02-01T08:32:24.796Z,19.12
2018-02-01T08:34:52.273Z,16.58
2018-02-01T08:37:19.728Z,17.50
2018-02-01T08:39:47.188Z,16.73
2018-02-01T08:42:14.648Z,18.87
2018-02-01T08:44:42.113Z,18.25
2018-02-01T08:47:09.855Z,17.65
2018-02-01T08:49:37.324Z,15.90
2018-02-01T08:52:04.962Z,17.95
2018-02-01T08:54:32.421Z,18.92
2018-02-01T08:56:59.875Z,14.30
2018-02-01T08:59:27.351Z,18.25
2018-02-01T09:01:54.805Z,15.77
2018-02-01T09:04:23.028Z,14.67
2018-02-01T09:06:50.491Z,16.67
2018-02-01T09:09:17.960Z,10.80
2018-02-01T09:11:45.452Z,18.33
2018-02-01T09:14:12.923Z,14.05
2018-02-01T09:16:40.396Z,15.85
2018-02-01T09:19:07.872Z,16.92
2018-02-01T09:21:35.444Z,15.15
2018-02-01T09:24:02.911Z,11.02
2018-02-01T09:26:30.372Z,13.50
2018-02-01T09:28:57.840Z,14.32
2018-02-01T09:31:25.298Z,17.80
2018-02-01T09:33:52.752Z,17.42
2018-02-01T09:36:20.212Z,10.50
2018-02-01T09:38:47.673Z,11.80
2018-02-01T09:41:15.168Z,13.27
2018-02-01T09:43:42.640Z,14.07
2018-02-01T09:46:10.112Z,14.15
2018-02-01T09:48:37.601Z,15.48
2018-02-01T09:51:05.064Z,11.95
2018-02-01T09:53:32.520Z,11.18
2018-02-01T09:56:00.030Z,16.85
2018-02-01T09:58:27.488Z,12.68
2018-02-01T10:00:54.952Z,10.85
2018-02-01T10:03:22.420Z,15.20
2018-02-01T10:05:49.876Z,13.70
2018-02-01T10:08:17.333Z,11.70
2018-02-01T10:10:44.812Z,13.13
2018-02-01T10:13:12.272Z,12.40
2018-02-01T10:15:39.732Z,15.20
2018-02-01T10:18:07.244Z,14.50
2018-02-01T10:20:34.808Z,12.55
2018-02-01T10:23:02.264Z,12.13
2018-02-01T10:25:29.735Z,11.45
2018-02-01T10:27:57.200Z,12.80
2018-02-01T10:30:24.664Z,12.02
2018-02-01T10:32:52.120Z,12.02
2018-02-01T10:35:19.598Z,13.50
2018-02-01T10:37:47.053Z,10.98
2018-02-01T10:40:14.529Z,17.80
2018-02-01T10:42:41.993Z,9.18
2018-02-01T10:45:09.448Z,12.30
2018-02-01T10:47:36.964Z,11.18
2018-02-01T10:50:04.651Z,11.10
2018-02-01T10:52:32.107Z,7.60
2018-02-01T10:54:59.685Z,13.60
2018-02-01T10:57:27.144Z,13.55
2018-02-01T10:59:54.725Z,12.43
2018-02-01T11:02:22.196Z,17.70
2018-02-01T11:04:49.669Z,10.35
2018-02-01T11:07:17.172Z,14.80
2018-02-01T11:09:45.404Z,11.60
2018-02-01T11:12:12.903Z,13.07
2018-02-01T11:14:40.408Z,7.47
2018-02-01T11:17:08.631Z,14.05
2018-02-01T11:19:36.124Z,13.88
2018-02-01T11:22:03.609Z,12.13
2018-02-01T11:24:31.884Z,13.60
2018-02-01T11:26:59.352Z,13.43
2018-02-01T11:29:26.823Z,14.85
2018-02-01T11:31:54.280Z,16.67
2018-02-01T11:34:21.752Z,10.93
2018-02-01T11:36:49.235Z,12.70
2018-02-01T11:39:16.700Z,10.90
2018-02-01T11:41:44.156Z,11.82
2018-02-01T11:44:11.621Z,14.90
2018-02-01T11:46:39.096Z,14.30
2018-02-01T11:49:06.569Z,11.77
2018-02-01T11:51:34.033Z,12.70
2018-02-01T11:54:01.501Z,18.83
2018-02-01T11:56:28.976Z,17.58
2018-02-01T11:58:56.432Z,12.20
2018-02-01T12:01:23.934Z,14.60
2018-02-01T12:03:51.396Z,11.95
2018-02-01T12:06:18.866Z,13.02
2018-02-01T12:08:46.344Z,17.45
2018-02-01T12:11:13.820Z,13.85
2018-02-01T12:13:42.212Z,18.15
2018-02-01T12:16:09.693Z,15.35
2018-02-01T12:18:37.926Z,13.13
2018-02-01T12:21:05.414Z,12.85
2018-02-01T12:23:32.872Z,13.30
2018-02-01T12:26:00.329Z,18.17
2018-02-01T12:28:27.800Z,12.68
2018-02-01T12:30:55.256Z,13.73
2018-02-01T12:33:22.737Z,13.45
2018-02-01T12:35:50.196Z,13.40
2018-02-01T12:38:17.656Z,13.23
2018-02-01T12:40:45.239Z,10.63
2018-02-01T12:43:12.702Z,12.40
2018-02-01T12:45:40.148Z,11.33
2018-02-01T12:48:08.376Z,13.57
2018-02-01T12:50:35.849Z,12.40
2018-02-01T12:53:03.300Z,11.73
2018-02-01T12:55:30.764Z,11.27
2018-02-01T12:57:58.232Z,14.73
2018-02-01T13:00:25.696Z,12.37
2018-02-01T13:02:53.152Z,15.47
2018-02-01T13:05:20.636Z,10.57
2018-02-01T13:07:48.096Z,12.30
2018-02-01T13:10:15.553Z,10.75
2018-02-01T13:12:43.100Z,11.25
2018-02-01T13:15:10.644Z,10.05
2018-02-01T13:17:38.132Z,10.60
2018-02-01T13:20:05.800Z,9.40
2018-02-01T13:22:33.274Z,12.25
2018-02-01T13:25:00.758Z,10.77
2018-02-01T13:27:28.244Z,12.65
2018-02-01T13:29:56.600Z,11.57
2018-02-01T13:32:24.060Z,12.60
2018-02-01T13:34:51.525Z,13.02
2018-02-01T13:37:18.992Z,12.57
2018-02-01T13:39:46.452Z,9.38
2018-02-01T13:42:13.948Z,14.07
2018-02-01T13:44:41.524Z,11.57
2018-02-01T13:47:09.103Z,9.85
2018-02-01T13:49:36.660Z,13.43
2018-02-01T13:52:04.122Z,10.80
2018-02-01T13:54:32.432Z,12.98
2018-02-01T13:56:59.896Z,11.48
2018-02-01T13:59:27.364Z,12.63
2018-02-01T14:01:54.832Z,10.82
2018-02-01T14:04:22.295Z,16.15
2018-02-01T14:06:49.777Z,12.55
2018-02-01T14:09:17.236Z,10.35
2018-02-01T14:11:44.704Z,10.38
2018-02-01T14:14:12.229Z,12.60
2018-02-01T14:16:39.680Z,8.50
2018-02-01T14:19:07.908Z,8.63
2018-02-01T14:21:35.377Z,8.77
2018-02-01T14:24:02.856Z,10.65
2018-02-01T14:26:30.311Z,7.90
2018-02-01T14:28:57.772Z,9.23
2018-02-01T14:31:25.253Z,10.47
2018-02-01T14:33:52.705Z,8.67
2018-02-01T14:36:20.171Z,11.77
2018-02-01T14:38:47.640Z,11.70
2018-02-01T14:41:15.165Z,12.95
2018-02-01T14:43:42.648Z,9.23
2018-02-01T14:46:10.201Z,8.73
2018-02-01T14:48:37.677Z,9.60
2018-02-01T14:51:05.167Z,12.18
2018-02-01T14:53:33.393Z,9.90
2018-02-01T14:56:00.878Z,9.35
2018-02-01T14:58:28.394Z,13.10
2018-02-01T15:00:56.624Z,9.52
2018-02-01T15:03:24.104Z,11.05
2018-02-01T15:05:51.563Z,14.05
2018-02-01T15:08:19.025Z,9.32
2018-02-01T15:10:46.486Z,10.55
2018-02-01T15:13:13.968Z,8.70
2018-02-01T15:15:41.424Z,9.63
2018-02-01T15:18:08.880Z,9.90
2018-02-01T15:20:36.348Z,11.77
2018-02-01T15:23:03.877Z,12.13
2018-02-01T15:25:31.340Z,13.63
2018-02-01T15:27:58.869Z,9.80
2018-02-01T15:30:26.338Z,8.80
2018-02-01T15:32:53.828Z,10.95
2018-02-01T15:35:21.304Z,9.30
2018-02-01T15:37:48.788Z,7.85
2018-02-01T15:40:16.244Z,6.87
2018-02-01T15:42:43.700Z,6.90
2018-02-01T15:45:11.180Z,7.62
2018-02-01T15:47:38.651Z,7.60
2018-02-01T15:50:06.116Z,6.40
2018-02-01T15:52:33.588Z,5.85
2018-02-01T15:55:01.048Z,6.40
2018-02-01T15:57:28.594Z,6.30
2018-02-01T15:59:56.428Z,6.60
2018-02-01T16:02:23.887Z,6.60
2018-02-01T16:04:51.351Z,8.20
2018-02-01T16:07:18.829Z,8.00
2018-02-01T16:09:46.284Z,8.45
2018-02-01T16:12:13.744Z,8.57
2018-02-01T16:14:41.208Z,9.25
2018-02-01T16:17:08.664Z,8.50
2018-02-01T16:19:36.128Z,8.85
2018-02-01T16:22:03.698Z,10.13
2018-02-01T16:24:31.916Z,9.63
2018-02-01T16:26:59.425Z,12.15
2018-02-01T16:29:27.048Z,10.65
2018-02-01T16:31:54.557Z,11.25
2018-02-01T16:34:22.018Z,10.73
2018-02-01T16:36:49.513Z,11.50
2018-02-01T16:39:16.974Z,11.40
2018-02-01T16:41:44.440Z,12.00
2018-02-01T16:44:11.904Z,13.50
2018-02-01T16:46:39.376Z,14.20
2018-02-01T16:49:06.914Z,14.95
2018-02-01T16:51:34.355Z,13.13
2018-02-01T16:54:01.821Z,15.95
2018-02-01T16:56:30.080Z,16.00
2018-02-01T16:58:57.553Z,18.00
2018-02-01T17:01:25.024Z,19.92
2018-02-01T17:03:52.492Z,16.40
2018-02-01T17:06:19.965Z,16.08
2018-02-01T17:08:48.197Z,16.95
2018-02-01T17:11:15.816Z,19.52
2018-02-01T17:13:43.372Z,17.95
2018-02-01T17:16:10.833Z,17.77
2018-02-01T17:18:38.300Z,16.97
2018-02-01T17:21:05.773Z,20.48
2018-02-01T17:23:33.323Z,17.27
2018-02-01T17:26:00.794Z,18.65
2018-02-01T17:28:28.262Z,20.73
2018-02-01T17:30:55.745Z,17.90
2018-02-01T17:33:23.212Z,19.58
2018-02-01T17:35:50.686Z,17.52
2018-02-01T17:38:18.220Z,19.65
2018-02-01T17:40:45.689Z,22.27
2018-02-01T17:43:13.160Z,19.77
2018-02-01T17:45:40.632Z,26.10
2018-02-01T17:48:08.092Z,23.95
2018-02-01T17:50:35.603Z,21.10
2018-02-01T17:53:03.073Z,22.10
2018-02-01T17:55:31.326Z,24.30
2018-02-01T17:57:59.564Z,22.90
2018-02-01T18:00:27.196Z,24.02
2018-02-01T18:02:54.659Z,22.10
2018-02-01T18:05:22.120Z,22.62
2018-02-01T18:07:49.588Z,26.25
2018-02-01T18:10:17.120Z,19.10
2018-02-01T18:12:44.629Z,19.15
2018-02-01T18:15:12.120Z,20.67
2018-02-01T18:17:39.587Z,22.50
2018-02-01T18:20:07.068Z,18.23
2018-02-01T18:22:34.571Z,20.83
2018-02-01T18:25:02.095Z,19.08
2018-02-01T18:27:29.584Z,16.48
2018-02-01T18:29:57.210Z,13.38
2018-02-01T18:32:24.669Z,13.87
2018-02-01T18:34:52.128Z,16.70
2018-02-01T18:37:19.604Z,13.05
2018-02-01T18:39:47.080Z,12.13
2018-02-01T18:42:14.564Z,14.10
2018-02-01T18:44:42.792Z,13.38
2018-02-01T18:47:10.302Z,12.10
2018-02-01T18:49:37.768Z,13.30
2018-02-01T18:52:05.236Z,13.25
2018-02-01T18:54:32.708Z,10.60
2018-02-01T18:57:00.168Z,10.70
2018-02-01T18:59:27.667Z,18.08
2018-02-01T19:01:55.896Z,12.50
2018-02-01T19:04:23.384Z,18.27
2018-02-01T19:06:50.877Z,13.90
2018-02-01T19:09:18.365Z,17.45
2018-02-01T19:11:45.827Z,17.48
2018-02-01T19:14:13.323Z,18.20
2018-02-01T19:16:40.780Z,18.08
2018-02-01T19:19:09.017Z,16.17
2018-02-01T19:21:36.486Z,18.73
2018-02-01T19:24:03.952Z,21.00
2018-02-01T19:26:31.481Z,19.77
2018-02-01T19:28:59.728Z,22.37
2018-02-01T19:31:27.193Z,25.95
2018-02-01T19:33:54.656Z,21.52
2018-02-01T19:36:22.131Z,19.55
2018-02-01T19:38:49.593Z,24.20
2018-02-01T19:41:17.084Z,25.52
2018-02-01T19:43:44.580Z,25.17
2018-02-01T19:46:12.815Z,29.98
2018-02-01T19:48:40.296Z,27.35
2018-02-01T19:51:07.820Z,29.27
2018-02-01T19:53:36.032Z,29.37
2018-02-01T19:56:03.495Z,29.40
2018-02-01T19:58:31.100Z,31.00
2018-02-01T20:00:58.563Z,29.90
2018-02-01T20:03:26.059Z,31.10
2018-02-01T20:05:53.663Z,31.27
2018-02-01T20:08:21.136Z,29.23
2018-02-01T20:10:48.609Z,26.65
2018-02-01T20:13:16.125Z,29.05
2018-02-01T20:15:43.591Z,32.17
2018-02-01T20:18:11.148Z,26.50
2018-02-01T20:20:38.621Z,28.23
2018-02-01T20:23:06.093Z,30.35
2018-02-01T20:25:34.403Z,30.27
2018-02-01T20:28:01.965Z,27.52
2018-02-01T20:30:29.612Z,28.85
2018-02-01T20:32:57.080Z,29.63
2018-02-01T20:35:24.571Z,26.25
2018-02-01T20:37:52.052Z,30.02
2018-02-01T20:40:19.612Z,30.23
2018-02-01T20:42:47.184Z,33.67
2018-02-01T20:45:14.664Z,26.77
2018-02-01T20:47:42.151Z,27.47
2018-02-01T20:50:10.394Z,32.70
2018-02-01T20:52:37.860Z,25.43
2018-02-01T20:55:05.393Z,28.25
2018-02-01T20:57:33.644Z,30.60
2018-02-01T21:00:01.136Z,31.08
2018-02-01T21:02:29.472Z,28.12
2018-02-01T21:04:56.937Z,28.67
2018-02-01T21:07:24.404Z,27.40
2018-02-01T21:09:51.868Z,28.77
2018-02-01T21:12:19.385Z,23.65
2018-02-01T21:14:46.848Z,29.20
2018-02-01T21:17:14.348Z,23.87
2018-02-01T21:19:42.614Z,26.37
2018-02-01T21:22:10.088Z,24.45
2018-02-01T21:24:38.344Z,26.08
2018-02-01T21:27:05.820Z,25.65
2018-02-01T21:29:33.292Z,23.75
2018-02-01T21:32:00.762Z,27.62
2018-02-01T21:34:28.239Z,31.90
2018-02-01T21:36:55.817Z,24.25
2018-02-01T21:39:23.321Z,23.20
2018-02-01T21:41:51.675Z,22.33
2018-02-01T21:44:19.183Z,24.15
2018-02-01T21:46:46.678Z,22.60
2018-02-01T21:49:14.172Z,23.23
2018-02-01T21:51:41.656Z,18.60
2018-02-01T21:54:09.228Z,20.98
2018-02-01T21:56:36.836Z,22.23
2018-02-01T21:59:05.084Z,19.77
2018-02-01T22:01:32.561Z,22.87
2018-02-01T22:04:00.037Z,23.87
2018-02-01T22:06:27.496Z,24.67
2018-02-01T22:08:54.961Z,26.65
2018-02-01T22:11:22.541Z,19.80
2018-02-01T22:13:50.105Z,21.60
2018-02-01T22:16:17.831Z,23.75
2018-02-01T22:18:45.352Z,19.73
2018-02-01T22:21:12.818Z,28.27
2018-02-01T22:23:40.288Z,23.70
2018-02-01T22:26:07.877Z,17.30
2018-02-01T22:28:35.444Z,20.23
2018-02-01T22:31:02.904Z,19.85
2018-02-01T22:33:30.384Z,16.95
2018-02-01T22:35:57.867Z,19.33
2018-02-01T22:38:26.110Z,24.87
2018-02-01T22:40:53.568Z,18.95
2018-02-01T22:43:21.036Z,18.95
2018-02-01T22:45:48.508Z,20.20
2018-02-01T22:48:16.001Z,21.40
2018-02-01T22:50:43.533Z,15.30
2018-02-01T22:53:11.054Z,22.23
2018-02-01T22:55:38.516Z,18.35
2018-02-01T22:58:05.981Z,18.58
2018-02-01T23:00:33.562Z,15.70
2018-02-01T23:03:01.024Z,18.73
2018-02-01T23:05:28.507Z,20.98
2018-02-01T23:07:55.976Z,20.75
2018-02-01T23:10:23.449Z,16.77
2018-02-01T23:12:51.121Z,17.70
2018-02-01T23:15:18.591Z,18.08
2018-02-01T23:17:46.061Z,19.73
2018-02-01T23:20:13.540Z,17.10
2018-02-01T23:22:41.808Z,14.40
2018-02-01T23:25:09.275Z,16.50
2018-02-01T23:27:36.760Z,17.60
2018-02-01T23:30:04.244Z,14.30
2018-02-01T23:32:31.888Z,18.67
2018-02-01T23:34:59.353Z,18.67
2018-02-01T23:37:26.816Z,19.47
2018-02-01T23:39:54.300Z,19.58
2018-02-01T23:42:21.816Z,21.15
2018-02-01T23:44:49.344Z,18.77
2018-02-01T23:47:16.804Z,16.10
2018-02-01T23:49:44.276Z,17.70
2018-02-01T23:52:11.744Z,18.70
2018-02-01T23:54:39.232Z,15.98
2018-02-01T23:57:06.692Z,21.73
2018-02-01T23:59:34.197Z,22.60
